createdAt,value
2018-06-05T00:00:06.056Z,30.45
2018-06-05T00:00:18.455Z,30.45
2018-06-05T00:00:30.955Z,30.45
2018-06-05T00:00:43.390Z,30.45
2018-06-05T00:00:55.824Z,30.45
2018-06-05T00:01:08.292Z,30.45
2018-06-05T00:01:20.738Z,30.45
2018-06-05T00:01:33.144Z,30.45
2018-06-05T00:01:45.563Z,30.45
2018-06-05T00:01:57.964Z,30.45
2018-06-05T00:02:10.364Z,30.45
2018-06-05T00:02:22.769Z,30.45
2018-06-05T00:02:35.199Z,30.45
2018-06-05T00:02:47.604Z,30.45
2018-06-05T00:03:00.030Z,30.45
2018-06-05T00:03:12.435Z,30.45
2018-06-05T00:03:24.821Z,30.45
2018-06-05T00:03:37.222Z,30.45
2018-06-05T00:03:49.601Z,30.45
2018-06-05T00:04:01.997Z,30.45
2018-06-05T00:04:14.395Z,30.45
2018-06-05T00:04:26.777Z,30.45
2018-06-05T00:04:39.169Z,30.45
2018-06-05T00:04:51.565Z,30.45
2018-06-05T00:05:03.973Z,30.45
2018-06-05T00:05:16.420Z,30.45
2018-06-05T00:05:28.810Z,30.98
2018-06-05T00:05:41.220Z,30.98
2018-06-05T00:05:53.616Z,30.98
2018-06-05T00:06:06.045Z,30.98
2018-06-05T00:06:18.442Z,30.98
2018-06-05T00:06:30.856Z,30.98
2018-06-05T00:06:43.244Z,30.98
2018-06-05T00:06:55.667Z,30.98
2018-06-05T00:07:08.086Z,30.98
2018-06-05T00:07:20.528Z,30.98
2018-06-05T00:07:32.930Z,30.98
2018-06-05T00:07:45.333Z,30.98
2018-06-05T00:07:57.731Z,30.98
2018-06-05T00:08:10.192Z,30.98
2018-06-05T00:08:22.614Z,30.98
2018-06-05T00:08:35.010Z,30.98
2018-06-05T00:08:47.410Z,30.98
2018-06-05T00:08:59.811Z,30.98
2018-06-05T00:09:12.190Z,30.98
2018-06-05T00:09:24.607Z,30.98
2018-06-05T00:09:37.005Z,30.98
2018-06-05T00:09:49.384Z,30.98
2018-06-05T00:10:01.788Z,30.98
2018-06-05T00:10:14.193Z,30.98
2018-06-05T00:10:26.607Z,30.98
2018-06-05T00:10:39.012Z,30.98
2018-06-05T00:10:51.398Z,30.98
2018-06-05T00:11:03.843Z,30.98
2018-06-05T00:11:16.269Z,30.98
2018-06-05T00:11:28.673Z,30.98
2018-06-05T00:11:41.056Z,30.98
2018-06-05T00:11:53.512Z,30.98
2018-06-05T00:12:05.914Z,30.98
2018-06-05T00:12:18.351Z,30.98
2018-06-05T00:12:30.785Z,30.98
2018-06-05T00:12:43.169Z,30.98
2018-06-05T00:12:55.750Z,30.98
2018-06-05T00:13:08.164Z,30.98
2018-06-05T00:13:20.554Z,30.98
2018-06-05T00:13:32.937Z,30.98
2018-06-05T00:13:45.341Z,30.98
2018-06-05T00:13:57.776Z,30.98
2018-06-05T00:14:10.184Z,30.98
2018-06-05T00:14:22.578Z,30.98
2018-06-05T00:14:34.972Z,30.98
2018-06-05T00:14:47.382Z,30.98
2018-06-05T00:14:59.778Z,30.98
2018-06-05T00:15:12.176Z,30.98
2018-06-05T00:15:24.570Z,32.59
2018-06-05T00:15:36.958Z,32.59
2018-06-05T00:15:49.351Z,32.59
2018-06-05T00:16:01.743Z,32.59
2018-06-05T00:16:14.155Z,32.59
2018-06-05T00:16:26.562Z,32.59
2018-06-05T00:16:38.961Z,32.59
2018-06-05T00:16:51.362Z,32.59
2018-06-05T00:17:03.767Z,32.59
2018-06-05T00:17:16.162Z,32.59
2018-06-05T00:17:28.556Z,32.59
2018-06-05T00:17:41.055Z,32.59
2018-06-05T00:17:53.515Z,32.59
2018-06-05T00:18:05.918Z,32.59
2018-06-05T00:18:18.328Z,32.59
2018-06-05T00:18:30.728Z,32.59
2018-06-05T00:18:43.144Z,32.59
2018-06-05T00:18:55.563Z,32.59
2018-06-05T00:19:07.998Z,32.59
2018-06-05T00:19:20.408Z,32.59
2018-06-05T00:19:32.805Z,32.59
2018-06-05T00:19:45.212Z,32.59
2018-06-05T00:19:57.608Z,32.59
2018-06-05T00:20:10.015Z,32.59
2018-06-05T00:20:22.427Z,32.59
2018-06-05T00:20:34.830Z,32.59
2018-06-05T00:20:47.221Z,32.59
2018-06-05T00:20:59.618Z,32.59
2018-06-05T00:21:12.027Z,32.59
2018-06-05T00:21:24.412Z,32.59
2018-06-05T00:21:36.804Z,32.59
2018-06-05T00:21:49.227Z,32.59
2018-06-05T00:22:01.625Z,32.59
2018-06-05T00:22:14.056Z,32.59
2018-06-05T00:22:26.445Z,32.59
2018-06-05T00:22:38.857Z,32.59
2018-06-05T00:22:51.258Z,32.59
2018-06-05T00:23:03.657Z,32.59
2018-06-05T00:23:16.051Z,32.59
2018-06-05T00:23:28.490Z,32.59
2018-06-05T00:23:40.896Z,32.59
2018-06-05T00:23:53.287Z,32.59
2018-06-05T00:24:05.671Z,32.59
2018-06-05T00:24:18.069Z,32.59
2018-06-05T00:24:30.472Z,32.59
2018-06-05T00:24:42.881Z,32.59
2018-06-05T00:24:55.271Z,32.59
2018-06-05T00:25:07.647Z,32.59
2018-06-05T00:25:20.064Z,29.59
2018-06-05T00:25:32.463Z,29.59
2018-06-05T00:25:44.852Z,29.59
2018-06-05T00:25:57.272Z,29.59
2018-06-05T00:26:09.670Z,29.59
2018-06-05T00:26:22.081Z,29.59
2018-06-05T00:26:34.509Z,29.59
2018-06-05T00:26:46.912Z,29.59
2018-06-05T00:26:59.844Z,29.59
2018-06-05T00:27:12.407Z,29.59
2018-06-05T00:27:24.811Z,29.59
2018-06-05T00:27:37.218Z,29.59
2018-06-05T00:27:49.696Z,29.59
2018-06-05T00:28:02.113Z,29.59
2018-06-05T00:28:14.537Z,29.59
2018-06-05T00:28:26.950Z,29.59
2018-06-05T00:28:39.360Z,29.59
2018-06-05T00:28:51.753Z,29.59
2018-06-05T00:29:04.141Z,29.59
2018-06-05T00:29:16.536Z,29.59
2018-06-05T00:29:28.933Z,29.59
2018-06-05T00:29:41.321Z,29.59
2018-06-05T00:29:53.726Z,29.59
2018-06-05T00:30:06.145Z,29.59
2018-06-05T00:30:18.574Z,29.59
2018-06-05T00:30:30.964Z,29.59
2018-06-05T00:30:43.363Z,29.59
2018-06-05T00:30:55.770Z,29.59
2018-06-05T00:31:08.329Z,29.59
2018-06-05T00:31:20.741Z,29.59
2018-06-05T00:31:33.137Z,29.59
2018-06-05T00:31:45.537Z,29.59
2018-06-05T00:31:57.929Z,29.59
2018-06-05T00:32:10.316Z,29.59
2018-06-05T00:32:22.702Z,29.59
2018-06-05T00:32:35.103Z,29.59
2018-06-05T00:32:47.502Z,29.59
2018-06-05T00:32:59.908Z,29.59
2018-06-05T00:33:12.338Z,29.59
2018-06-05T00:33:24.744Z,29.59
2018-06-05T00:33:37.122Z,29.59
2018-06-05T00:33:49.537Z,29.59
2018-06-05T00:34:01.939Z,29.59
2018-06-05T00:34:14.342Z,29.59
2018-06-05T00:34:26.775Z,29.59
2018-06-05T00:34:39.154Z,29.59
2018-06-05T00:34:51.607Z,29.59
2018-06-05T00:35:04.186Z,29.59
2018-06-05T00:35:16.625Z,29.59
2018-06-05T00:35:29.051Z,28.48
2018-06-05T00:35:41.471Z,28.48
2018-06-05T00:35:53.859Z,28.48
2018-06-05T00:36:06.261Z,28.48
2018-06-05T00:36:18.645Z,28.48
2018-06-05T00:36:31.046Z,28.48
2018-06-05T00:36:43.430Z,28.48
2018-06-05T00:36:55.820Z,28.48
2018-06-05T00:37:08.257Z,28.48
2018-06-05T00:37:20.820Z,28.48
2018-06-05T00:37:33.206Z,28.48
2018-06-05T00:37:45.609Z,28.48
2018-06-05T00:37:58.019Z,28.48
2018-06-05T00:38:10.441Z,28.48
2018-06-05T00:38:22.859Z,28.48
2018-06-05T00:38:35.271Z,28.48
2018-06-05T00:38:47.682Z,28.48
2018-06-05T00:39:00.084Z,28.48
2018-06-05T00:39:12.485Z,28.48
2018-06-05T00:39:24.969Z,28.48
2018-06-05T00:39:37.348Z,28.48
2018-06-05T00:39:49.732Z,28.48
2018-06-05T00:40:02.146Z,28.48
2018-06-05T00:40:14.540Z,28.48
2018-06-05T00:40:26.963Z,28.48
2018-06-05T00:40:39.382Z,28.48
2018-06-05T00:40:51.783Z,28.48
2018-06-05T00:41:04.175Z,28.48
2018-06-05T00:41:16.667Z,28.48
2018-06-05T00:41:29.057Z,28.48
2018-06-05T00:41:41.438Z,28.48
2018-06-05T00:41:53.814Z,28.48
2018-06-05T00:42:06.225Z,28.48
2018-06-05T00:42:18.629Z,28.48
2018-06-05T00:42:31.034Z,28.48
2018-06-05T00:42:43.443Z,28.48
2018-06-05T00:42:55.834Z,28.48
2018-06-05T00:43:08.260Z,28.48
2018-06-05T00:43:20.679Z,28.48
2018-06-05T00:43:33.087Z,28.48
2018-06-05T00:43:45.477Z,28.48
2018-06-05T00:43:57.997Z,28.48
2018-06-05T00:44:10.420Z,28.48
2018-06-05T00:44:22.836Z,28.48
2018-06-05T00:44:35.408Z,28.48
2018-06-05T00:44:47.809Z,28.48
2018-06-05T00:45:00.221Z,28.48
2018-06-05T00:45:12.654Z,28.48
2018-06-05T00:45:25.047Z,33.53
2018-06-05T00:45:37.497Z,33.53
2018-06-05T00:45:49.902Z,33.53
2018-06-05T00:46:02.309Z,33.53
2018-06-05T00:46:14.749Z,33.53
2018-06-05T00:46:27.152Z,33.53
2018-06-05T00:46:39.763Z,33.53
2018-06-05T00:46:52.163Z,33.53
2018-06-05T00:47:04.558Z,33.53
2018-06-05T00:47:16.996Z,33.53
2018-06-05T00:47:29.419Z,33.53
2018-06-05T00:47:41.848Z,33.53
2018-06-05T00:47:54.274Z,33.53
2018-06-05T00:48:06.708Z,33.53
2018-06-05T00:48:19.101Z,33.53
2018-06-05T00:48:31.649Z,33.53
2018-06-05T00:48:44.091Z,33.53
2018-06-05T00:48:56.507Z,33.53
2018-06-05T00:49:08.915Z,33.53
2018-06-05T00:49:21.313Z,33.53
2018-06-05T00:49:33.734Z,33.53
2018-06-05T00:49:46.156Z,33.53
2018-06-05T00:49:58.559Z,33.53
2018-06-05T00:50:10.981Z,33.53
2018-06-05T00:50:23.398Z,33.53
2018-06-05T00:50:35.808Z,33.53
2018-06-05T00:50:48.212Z,33.53
2018-06-05T00:51:00.621Z,33.53
2018-06-05T00:51:13.025Z,33.53
2018-06-05T00:51:25.420Z,33.53
2018-06-05T00:51:37.828Z,33.53
2018-06-05T00:51:50.222Z,33.53
2018-06-05T00:52:02.635Z,33.53
2018-06-05T00:52:15.065Z,33.53
2018-06-05T00:52:27.474Z,33.53
2018-06-05T00:52:39.846Z,33.53
2018-06-05T00:52:52.255Z,33.53
2018-06-05T00:53:04.666Z,33.53
2018-06-05T00:53:17.073Z,33.53
2018-06-05T00:53:29.495Z,33.53
2018-06-05T00:53:41.904Z,33.53
2018-06-05T00:53:54.296Z,33.53
2018-06-05T00:54:06.687Z,33.53
2018-06-05T00:54:19.066Z,33.53
2018-06-05T00:54:31.470Z,33.53
2018-06-05T00:54:43.880Z,33.53
2018-06-05T00:54:56.285Z,33.53
2018-06-05T00:55:08.711Z,33.53
2018-06-05T00:55:21.112Z,32.47
2018-06-05T00:55:33.494Z,32.47
2018-06-05T00:55:45.888Z,32.47
2018-06-05T00:55:58.283Z,32.47
2018-06-05T00:56:10.670Z,32.47
2018-06-05T00:56:23.075Z,32.47
2018-06-05T00:56:35.505Z,32.47
2018-06-05T00:56:47.931Z,32.47
2018-06-05T00:57:00.339Z,32.47
2018-06-05T00:57:12.754Z,32.47
2018-06-05T00:57:25.147Z,32.47
2018-06-05T00:57:37.539Z,32.47
2018-06-05T00:57:49.963Z,32.47
2018-06-05T00:58:02.373Z,32.47
2018-06-05T00:58:14.759Z,32.47
2018-06-05T00:58:27.143Z,32.47
2018-06-05T00:58:39.546Z,32.47
2018-06-05T00:58:51.943Z,32.47
2018-06-05T00:59:04.369Z,32.47
2018-06-05T00:59:16.771Z,32.47
2018-06-05T00:59:29.204Z,32.47
2018-06-05T00:59:41.609Z,32.47
2018-06-05T00:59:54.152Z,32.47
2018-06-05T01:00:06.560Z,32.47
2018-06-05T01:00:18.974Z,32.47
2018-06-05T01:00:31.472Z,32.47
2018-06-05T01:00:43.943Z,32.47
2018-06-05T01:00:56.380Z,32.47
2018-06-05T01:01:08.824Z,32.47
2018-06-05T01:01:21.251Z,32.47
2018-06-05T01:01:33.650Z,32.47
2018-06-05T01:01:46.085Z,32.47
2018-06-05T01:01:58.494Z,32.47
2018-06-05T01:02:10.923Z,32.47
2018-06-05T01:02:23.421Z,32.47
2018-06-05T01:02:35.835Z,32.47
2018-06-05T01:02:48.289Z,32.47
2018-06-05T01:03:00.706Z,32.47
2018-06-05T01:03:13.122Z,32.47
2018-06-05T01:03:25.553Z,32.47
2018-06-05T01:03:37.946Z,32.47
2018-06-05T01:03:50.351Z,32.47
2018-06-05T01:04:02.757Z,32.47
2018-06-05T01:04:15.149Z,32.47
2018-06-05T01:04:27.525Z,32.47
2018-06-05T01:04:39.924Z,32.47
2018-06-05T01:04:52.307Z,32.47
2018-06-05T01:05:04.763Z,32.47
2018-06-05T01:05:17.160Z,32.47
2018-06-05T01:05:29.564Z,34.38
2018-06-05T01:05:41.968Z,34.38
2018-06-05T01:05:54.364Z,34.38
2018-06-05T01:06:06.766Z,34.38
2018-06-05T01:06:19.210Z,34.38
2018-06-05T01:06:31.599Z,34.38
2018-06-05T01:06:43.994Z,34.38
2018-06-05T01:06:56.368Z,34.38
2018-06-05T01:07:08.789Z,34.38
2018-06-05T01:07:21.204Z,34.38
2018-06-05T01:07:33.684Z,34.38
2018-06-05T01:07:46.096Z,34.38
2018-06-05T01:07:58.473Z,34.38
2018-06-05T01:08:10.956Z,34.38
2018-06-05T01:08:23.354Z,34.38
2018-06-05T01:08:35.755Z,34.38
2018-06-05T01:08:48.156Z,34.38
2018-06-05T01:09:00.556Z,34.38
2018-06-05T01:09:12.968Z,34.38
2018-06-05T01:09:25.364Z,34.38
2018-06-05T01:09:37.770Z,34.38
2018-06-05T01:09:50.167Z,34.38
2018-06-05T01:10:02.564Z,34.38
2018-06-05T01:10:14.988Z,34.38
2018-06-05T01:10:27.395Z,34.38
2018-06-05T01:10:39.786Z,34.38
2018-06-05T01:10:52.194Z,34.38
2018-06-05T01:11:04.614Z,34.38
2018-06-05T01:11:17.079Z,34.38
2018-06-05T01:11:29.486Z,34.38
2018-06-05T01:11:41.886Z,34.38
2018-06-05T01:11:54.288Z,34.38
2018-06-05T01:12:06.700Z,34.38
2018-06-05T01:12:19.106Z,34.38
2018-06-05T01:12:31.527Z,34.38
2018-06-05T01:12:43.940Z,34.38
2018-06-05T01:12:56.694Z,34.38
2018-06-05T01:13:09.113Z,34.38
2018-06-05T01:13:21.510Z,34.38
2018-06-05T01:13:33.903Z,34.38
2018-06-05T01:13:46.309Z,34.38
2018-06-05T01:13:58.699Z,34.38
2018-06-05T01:14:11.125Z,34.38
2018-06-05T01:14:23.535Z,34.38
2018-06-05T01:14:35.915Z,34.38
2018-06-05T01:14:48.315Z,34.38
2018-06-05T01:15:00.730Z,34.38
2018-06-05T01:15:13.136Z,34.38
2018-06-05T01:15:25.526Z,31.79
2018-06-05T01:15:37.931Z,31.79
2018-06-05T01:15:50.321Z,31.79
2018-06-05T01:16:02.718Z,31.79
2018-06-05T01:16:15.205Z,31.79
2018-06-05T01:16:27.630Z,31.79
2018-06-05T01:16:40.019Z,31.79
2018-06-05T01:16:52.448Z,31.79
2018-06-05T01:17:04.840Z,31.79
2018-06-05T01:17:17.243Z,31.79
2018-06-05T01:17:29.645Z,31.79
2018-06-05T01:17:42.128Z,31.79
2018-06-05T01:17:54.545Z,31.79
2018-06-05T01:18:06.945Z,31.79
2018-06-05T01:18:19.383Z,31.79
2018-06-05T01:18:31.767Z,31.79
2018-06-05T01:18:44.171Z,31.79
2018-06-05T01:18:56.597Z,31.79
2018-06-05T01:19:09.009Z,31.79
2018-06-05T01:19:21.448Z,31.79
2018-06-05T01:19:33.836Z,31.79
2018-06-05T01:19:46.228Z,31.79
2018-06-05T01:19:58.620Z,31.79
2018-06-05T01:20:11.022Z,31.79
2018-06-05T01:20:23.422Z,31.79
2018-06-05T01:20:35.877Z,31.79
2018-06-05T01:20:48.270Z,31.79
2018-06-05T01:21:00.660Z,31.79
2018-06-05T01:21:13.057Z,31.79
2018-06-05T01:21:25.459Z,31.79
2018-06-05T01:21:37.867Z,31.79
2018-06-05T01:21:50.291Z,31.79
2018-06-05T01:22:02.686Z,31.79
2018-06-05T01:22:15.080Z,31.79
2018-06-05T01:22:27.478Z,31.79
2018-06-05T01:22:39.937Z,31.79
2018-06-05T01:22:52.374Z,31.79
2018-06-05T01:23:04.774Z,31.79
2018-06-05T01:23:17.212Z,31.79
2018-06-05T01:23:29.617Z,31.79
2018-06-05T01:23:42.028Z,31.79
2018-06-05T01:23:54.450Z,31.79
2018-06-05T01:24:06.844Z,31.79
2018-06-05T01:24:19.252Z,31.79
2018-06-05T01:24:31.644Z,31.79
2018-06-05T01:24:44.063Z,31.79
2018-06-05T01:24:56.466Z,31.79
2018-06-05T01:25:08.859Z,31.79
2018-06-05T01:25:21.357Z,34.72
2018-06-05T01:25:33.753Z,34.72
2018-06-05T01:25:46.145Z,34.72
2018-06-05T01:25:58.585Z,34.72
2018-06-05T01:26:11.002Z,34.72
2018-06-05T01:26:23.387Z,34.72
2018-06-05T01:26:35.803Z,34.72
2018-06-05T01:26:48.198Z,34.72
2018-06-05T01:27:00.620Z,34.72
2018-06-05T01:27:13.009Z,34.72
2018-06-05T01:27:25.416Z,34.72
2018-06-05T01:27:37.817Z,34.72
2018-06-05T01:27:50.198Z,34.72
2018-06-05T01:28:02.599Z,34.72
2018-06-05T01:28:14.977Z,34.72
2018-06-05T01:28:27.361Z,34.72
2018-06-05T01:28:39.782Z,34.72
2018-06-05T01:28:52.185Z,34.72
2018-06-05T01:29:04.574Z,34.72
2018-06-05T01:29:16.987Z,34.72
2018-06-05T01:29:29.375Z,34.72
2018-06-05T01:29:41.766Z,34.72
2018-06-05T01:29:54.170Z,34.72
2018-06-05T01:30:06.568Z,34.72
2018-06-05T01:30:19.018Z,34.72
2018-06-05T01:30:31.442Z,34.72
2018-06-05T01:30:43.860Z,34.72
2018-06-05T01:30:56.244Z,34.72
2018-06-05T01:31:08.776Z,34.72
2018-06-05T01:31:21.172Z,34.72
2018-06-05T01:31:33.598Z,34.72
2018-06-05T01:31:45.985Z,34.72
2018-06-05T01:31:58.380Z,34.72
2018-06-05T01:32:10.774Z,34.72
2018-06-05T01:32:23.193Z,34.72
2018-06-05T01:32:35.619Z,34.72
2018-06-05T01:32:48.038Z,34.72
2018-06-05T01:33:00.443Z,34.72
2018-06-05T01:33:12.899Z,34.72
2018-06-05T01:33:25.278Z,34.72
2018-06-05T01:33:37.679Z,34.72
2018-06-05T01:33:50.074Z,34.72
2018-06-05T01:34:02.519Z,34.72
2018-06-05T01:34:14.930Z,34.72
2018-06-05T01:34:27.306Z,34.72
2018-06-05T01:34:39.706Z,34.72
2018-06-05T01:34:52.090Z,34.72
2018-06-05T01:35:05.171Z,34.72
2018-06-05T01:35:17.576Z,34.72
2018-06-05T01:35:29.991Z,33.22
2018-06-05T01:35:42.386Z,33.22
2018-06-05T01:35:54.798Z,33.22
2018-06-05T01:36:07.184Z,33.22
2018-06-05T01:36:19.618Z,33.22
2018-06-05T01:36:32.031Z,33.22
2018-06-05T01:36:44.446Z,33.22
2018-06-05T01:36:56.833Z,33.22
2018-06-05T01:37:09.232Z,33.22
2018-06-05T01:37:21.633Z,33.22
2018-06-05T01:37:34.039Z,33.22
2018-06-05T01:37:46.446Z,33.22
2018-06-05T01:37:58.849Z,33.22
2018-06-05T01:38:11.220Z,33.22
2018-06-05T01:38:23.645Z,33.22
2018-06-05T01:38:36.059Z,33.22
2018-06-05T01:38:48.496Z,33.22
2018-06-05T01:39:00.899Z,33.22
2018-06-05T01:39:13.324Z,33.22
2018-06-05T01:39:25.883Z,33.22
2018-06-05T01:39:38.286Z,33.22
2018-06-05T01:39:50.688Z,33.22
2018-06-05T01:40:03.124Z,33.22
2018-06-05T01:40:15.529Z,33.22
2018-06-05T01:40:27.923Z,33.22
2018-06-05T01:40:40.309Z,33.22
2018-06-05T01:40:52.706Z,33.22
2018-06-05T01:41:05.113Z,33.22
2018-06-05T01:41:17.524Z,33.22
2018-06-05T01:41:29.939Z,33.22
2018-06-05T01:41:42.357Z,33.22
2018-06-05T01:41:54.762Z,33.22
2018-06-05T01:42:07.164Z,33.22
2018-06-05T01:42:19.541Z,33.22
2018-06-05T01:42:31.946Z,33.22
2018-06-05T01:42:44.327Z,33.22
2018-06-05T01:42:56.717Z,33.22
2018-06-05T01:43:09.137Z,33.22
2018-06-05T01:43:21.518Z,33.22
2018-06-05T01:43:33.909Z,33.22
2018-06-05T01:43:46.294Z,33.22
2018-06-05T01:43:58.701Z,33.22
2018-06-05T01:44:11.100Z,33.22
2018-06-05T01:44:23.518Z,33.22
2018-06-05T01:44:36.082Z,33.22
2018-06-05T01:44:48.650Z,33.22
2018-06-05T01:45:01.073Z,33.22
2018-06-05T01:45:13.727Z,33.22
2018-06-05T01:45:26.149Z,34.48
2018-06-05T01:45:38.556Z,34.48
2018-06-05T01:45:50.942Z,34.48
2018-06-05T01:46:03.344Z,34.48
2018-06-05T01:46:15.747Z,34.48
2018-06-05T01:46:28.181Z,34.48
2018-06-05T01:46:40.587Z,34.48
2018-06-05T01:46:53.011Z,34.48
2018-06-05T01:47:05.427Z,34.48
2018-06-05T01:47:17.961Z,34.48
2018-06-05T01:47:30.392Z,34.48
2018-06-05T01:47:42.791Z,34.48
2018-06-05T01:47:55.202Z,34.48
2018-06-05T01:48:07.640Z,34.48
2018-06-05T01:48:20.077Z,34.48
2018-06-05T01:48:32.605Z,34.48
2018-06-05T01:48:45.001Z,34.48
2018-06-05T01:48:57.405Z,34.48
2018-06-05T01:49:09.859Z,34.48
2018-06-05T01:49:22.263Z,34.48
2018-06-05T01:49:34.688Z,34.48
2018-06-05T01:49:47.105Z,34.48
2018-06-05T01:49:59.523Z,34.48
2018-06-05T01:50:11.982Z,34.48
2018-06-05T01:50:24.375Z,34.48
2018-06-05T01:50:36.773Z,34.48
2018-06-05T01:50:49.183Z,34.48
2018-06-05T01:51:01.596Z,34.48
2018-06-05T01:51:14.002Z,34.48
2018-06-05T01:51:26.439Z,34.48
2018-06-05T01:51:38.887Z,34.48
2018-06-05T01:51:51.288Z,34.48
2018-06-05T01:52:03.725Z,34.48
2018-06-05T01:52:16.207Z,34.48
2018-06-05T01:52:28.616Z,34.48
2018-06-05T01:52:41.046Z,34.48
2018-06-05T01:52:53.476Z,34.48
2018-06-05T01:53:05.905Z,34.48
2018-06-05T01:53:18.308Z,34.48
2018-06-05T01:53:30.718Z,34.48
2018-06-05T01:53:43.144Z,34.48
2018-06-05T01:53:55.553Z,34.48
2018-06-05T01:54:07.960Z,34.48
2018-06-05T01:54:20.353Z,34.48
2018-06-05T01:54:32.782Z,34.48
2018-06-05T01:54:45.182Z,34.48
2018-06-05T01:54:57.582Z,34.48
2018-06-05T01:55:09.992Z,34.48
2018-06-05T01:55:22.395Z,31.94
2018-06-05T01:55:34.814Z,31.94
2018-06-05T01:55:47.198Z,31.94
2018-06-05T01:55:59.611Z,31.94
2018-06-05T01:56:12.000Z,31.94
2018-06-05T01:56:24.398Z,31.94
2018-06-05T01:56:36.815Z,31.94
2018-06-05T01:56:49.261Z,31.94
2018-06-05T01:57:01.710Z,31.94
2018-06-05T01:57:14.116Z,31.94
2018-06-05T01:57:26.573Z,31.94
2018-06-05T01:57:38.989Z,31.94
2018-06-05T01:57:51.433Z,31.94
2018-06-05T01:58:03.831Z,31.94
2018-06-05T01:58:16.224Z,31.94
2018-06-05T01:58:28.641Z,31.94
2018-06-05T01:58:41.053Z,31.94
2018-06-05T01:58:53.469Z,31.94
2018-06-05T01:59:05.874Z,31.94
2018-06-05T01:59:18.263Z,31.94
2018-06-05T01:59:30.652Z,31.94
2018-06-05T01:59:43.141Z,31.94
2018-06-05T01:59:55.542Z,31.94
2018-06-05T02:00:07.994Z,31.94
2018-06-05T02:00:20.390Z,31.94
2018-06-05T02:00:33.003Z,31.94
2018-06-05T02:00:45.422Z,31.94
2018-06-05T02:00:57.877Z,31.94
2018-06-05T02:01:10.327Z,31.94
2018-06-05T02:01:22.757Z,31.94
2018-06-05T02:01:35.201Z,31.94
2018-06-05T02:01:47.655Z,31.94
2018-06-05T02:02:00.074Z,31.94
2018-06-05T02:02:12.487Z,31.94
2018-06-05T02:02:24.908Z,31.94
2018-06-05T02:02:37.306Z,31.94
2018-06-05T02:02:49.714Z,31.94
2018-06-05T02:03:02.137Z,31.94
2018-06-05T02:03:14.533Z,31.94
2018-06-05T02:03:26.934Z,31.94
2018-06-05T02:03:39.349Z,31.94
2018-06-05T02:03:51.741Z,31.94
2018-06-05T02:04:04.127Z,31.94
2018-06-05T02:04:16.560Z,31.94
2018-06-05T02:04:29.002Z,31.94
2018-06-05T02:04:41.410Z,31.94
2018-06-05T02:04:53.815Z,31.94
2018-06-05T02:05:06.232Z,31.94
2018-06-05T02:05:18.605Z,31.94
2018-06-05T02:05:31.028Z,32.38
2018-06-05T02:05:43.422Z,32.38
2018-06-05T02:05:55.830Z,32.38
2018-06-05T02:06:08.287Z,32.38
2018-06-05T02:06:20.683Z,32.38
2018-06-05T02:06:33.080Z,32.38
2018-06-05T02:06:45.483Z,32.38
2018-06-05T02:06:57.881Z,32.38
2018-06-05T02:07:10.297Z,32.38
2018-06-05T02:07:22.711Z,32.38
2018-06-05T02:07:35.123Z,32.38
2018-06-05T02:07:47.514Z,32.38
2018-06-05T02:07:59.906Z,32.38
2018-06-05T02:08:12.308Z,32.38
2018-06-05T02:08:24.732Z,32.38
2018-06-05T02:08:37.181Z,32.38
2018-06-05T02:08:49.572Z,32.38
2018-06-05T02:09:01.968Z,32.38
2018-06-05T02:09:14.360Z,32.38
2018-06-05T02:09:26.762Z,32.38
2018-06-05T02:09:39.156Z,32.38
2018-06-05T02:09:51.546Z,32.38
2018-06-05T02:10:03.931Z,32.38
2018-06-05T02:10:16.340Z,32.38
2018-06-05T02:10:28.859Z,32.38
2018-06-05T02:10:41.239Z,32.38
2018-06-05T02:10:53.638Z,32.38
2018-06-05T02:11:06.047Z,32.38
2018-06-05T02:11:18.447Z,32.38
2018-06-05T02:11:30.845Z,32.38
2018-06-05T02:11:43.255Z,32.38
2018-06-05T02:11:55.642Z,32.38
2018-06-05T02:12:08.042Z,32.38
2018-06-05T02:12:20.442Z,32.38
2018-06-05T02:12:32.840Z,32.38
2018-06-05T02:12:45.245Z,32.38
2018-06-05T02:12:57.876Z,32.38
2018-06-05T02:13:10.271Z,32.38
2018-06-05T02:13:22.696Z,32.38
2018-06-05T02:13:35.102Z,32.38
2018-06-05T02:13:47.516Z,32.38
2018-06-05T02:13:59.940Z,32.38
2018-06-05T02:14:12.349Z,32.38
2018-06-05T02:14:24.740Z,32.38
2018-06-05T02:14:37.134Z,32.38
2018-06-05T02:14:49.537Z,32.38
2018-06-05T02:15:01.962Z,32.38
2018-06-05T02:15:14.365Z,32.38
2018-06-05T02:15:26.904Z,31.84
2018-06-05T02:15:39.321Z,31.84
2018-06-05T02:15:51.744Z,31.84
2018-06-05T02:16:04.170Z,31.84
2018-06-05T02:16:16.577Z,31.84
2018-06-05T02:16:28.970Z,31.84
2018-06-05T02:16:41.378Z,31.84
2018-06-05T02:16:53.777Z,31.84
2018-06-05T02:17:06.185Z,31.84
2018-06-05T02:17:18.591Z,31.84
2018-06-05T02:17:30.985Z,31.84
2018-06-05T02:17:43.541Z,31.84
2018-06-05T02:17:55.960Z,31.84
2018-06-05T02:18:08.354Z,31.84
2018-06-05T02:18:20.754Z,31.84
2018-06-05T02:18:33.173Z,31.84
2018-06-05T02:18:45.558Z,31.84
2018-06-05T02:18:57.955Z,31.84
2018-06-05T02:19:10.377Z,31.84
2018-06-05T02:19:22.790Z,31.84
2018-06-05T02:19:35.192Z,31.84
2018-06-05T02:19:47.597Z,31.84
2018-06-05T02:19:59.998Z,31.84
2018-06-05T02:20:12.436Z,31.84
2018-06-05T02:20:24.830Z,31.84
2018-06-05T02:20:37.215Z,31.84
2018-06-05T02:20:49.626Z,31.84
2018-06-05T02:21:02.069Z,31.84
2018-06-05T02:21:14.445Z,31.84
2018-06-05T02:21:26.831Z,31.84
2018-06-05T02:21:39.211Z,31.84
2018-06-05T02:21:51.642Z,31.84
2018-06-05T02:22:04.056Z,31.84
2018-06-05T02:22:16.457Z,31.84
2018-06-05T02:22:28.860Z,31.84
2018-06-05T02:22:41.280Z,31.84
2018-06-05T02:22:53.678Z,31.84
2018-06-05T02:23:06.099Z,31.84
2018-06-05T02:23:18.520Z,31.84
2018-06-05T02:23:30.960Z,31.84
2018-06-05T02:23:43.343Z,31.84
2018-06-05T02:23:55.753Z,31.84
2018-06-05T02:24:08.143Z,31.84
2018-06-05T02:24:20.534Z,31.84
2018-06-05T02:24:32.931Z,31.84
2018-06-05T02:24:45.334Z,31.84
2018-06-05T02:24:57.718Z,31.84
2018-06-05T02:25:10.105Z,31.84
2018-06-05T02:25:22.498Z,31.84
2018-06-05T02:25:34.899Z,29.75
2018-06-05T02:25:47.304Z,29.75
2018-06-05T02:25:59.739Z,29.75
2018-06-05T02:26:12.166Z,29.75
2018-06-05T02:26:24.562Z,29.75
2018-06-05T02:26:36.950Z,29.75
2018-06-05T02:26:49.364Z,29.75
2018-06-05T02:27:01.769Z,29.75
2018-06-05T02:27:14.183Z,29.75
2018-06-05T02:27:26.609Z,29.75
2018-06-05T02:27:38.997Z,29.75
2018-06-05T02:27:51.412Z,29.75
2018-06-05T02:28:03.831Z,29.75
2018-06-05T02:28:16.269Z,29.75
2018-06-05T02:28:28.664Z,29.75
2018-06-05T02:28:41.070Z,29.75
2018-06-05T02:28:53.461Z,29.75
2018-06-05T02:29:05.899Z,29.75
2018-06-05T02:29:18.331Z,29.75
2018-06-05T02:29:30.751Z,29.75
2018-06-05T02:29:43.144Z,29.75
2018-06-05T02:29:55.545Z,29.75
2018-06-05T02:30:08.096Z,29.75
2018-06-05T02:30:20.518Z,29.75
2018-06-05T02:30:32.927Z,29.75
2018-06-05T02:30:45.342Z,29.75
2018-06-05T02:30:57.774Z,29.75
2018-06-05T02:31:10.374Z,29.75
2018-06-05T02:31:22.846Z,29.75
2018-06-05T02:31:35.275Z,29.75
2018-06-05T02:31:47.669Z,29.75
2018-06-05T02:32:00.113Z,29.75
2018-06-05T02:32:12.521Z,29.75
2018-06-05T02:32:24.944Z,29.75
2018-06-05T02:32:37.545Z,29.75
2018-06-05T02:32:49.969Z,29.75
2018-06-05T02:33:02.419Z,29.75
2018-06-05T02:33:14.871Z,29.75
2018-06-05T02:33:27.308Z,29.75
2018-06-05T02:33:39.726Z,29.75
2018-06-05T02:33:52.164Z,29.75
2018-06-05T02:34:04.594Z,29.75
2018-06-05T02:34:17.464Z,29.75
2018-06-05T02:34:30.033Z,29.75
2018-06-05T02:34:42.462Z,29.75
2018-06-05T02:34:55.061Z,29.75
2018-06-05T02:35:07.502Z,29.75
2018-06-05T02:35:19.912Z,29.75
2018-06-05T02:35:32.363Z,31.4
2018-06-05T02:35:44.805Z,31.4
2018-06-05T02:35:57.238Z,31.4
2018-06-05T02:36:09.687Z,31.4
2018-06-05T02:36:22.134Z,31.4
2018-06-05T02:36:34.552Z,31.4
2018-06-05T02:36:47.003Z,31.4
2018-06-05T02:36:59.456Z,31.4
2018-06-05T02:37:11.918Z,31.4
2018-06-05T02:37:24.383Z,31.4
2018-06-05T02:37:36.805Z,31.4
2018-06-05T02:37:49.230Z,31.4
2018-06-05T02:38:01.646Z,31.4
2018-06-05T02:38:14.063Z,31.4
2018-06-05T02:38:26.488Z,31.4
2018-06-05T02:38:38.917Z,31.4
2018-06-05T02:38:51.388Z,31.4
2018-06-05T02:39:03.841Z,31.4
2018-06-05T02:39:16.278Z,31.4
2018-06-05T02:39:28.833Z,31.4
2018-06-05T02:39:41.252Z,31.4
2018-06-05T02:39:53.682Z,31.4
2018-06-05T02:40:06.106Z,31.4